createdAt,value
2017-08-24T00:00:06.507Z,16.40
2017-08-24T00:02:33.912Z,16.40
2017-08-24T00:05:01.337Z,16.30
2017-08-24T00:07:28.745Z,16.30
2017-08-24T00:09:56.162Z,16.20
2017-08-24T00:12:23.586Z,16.20
2017-08-24T00:14:51.002Z,16.30
2017-08-24T00:17:18.412Z,16.30
2017-08-24T00:19:45.825Z,16.20
2017-08-24T00:22:13.233Z,16.30
2017-08-24T00:24:40.648Z,16.20
2017-08-24T00:27:08.049Z,16.20
2017-08-24T00:29:35.470Z,16.20
2017-08-24T00:32:02.893Z,16.10
2017-08-24T00:34:30.304Z,16.10
2017-08-24T00:36:57.706Z,16.20
2017-08-24T00:39:25.120Z,16.20
2017-08-24T00:41:52.522Z,16.20
2017-08-24T00:44:19.942Z,16.20
2017-08-24T00:46:47.358Z,16.10
2017-08-24T00:49:14.770Z,16.00
2017-08-24T00:51:42.178Z,15.90
2017-08-24T00:54:09.595Z,15.90
2017-08-24T00:56:37.002Z,15.90
2017-08-24T00:59:04.414Z,16.00
2017-08-24T01:01:31.827Z,15.90
2017-08-24T01:03:59.250Z,15.90
2017-08-24T01:06:26.663Z,15.90
2017-08-24T01:08:54.077Z,15.90
2017-08-24T01:11:21.497Z,15.90
2017-08-24T01:13:48.906Z,16.00
2017-08-24T01:16:16.312Z,15.90
2017-08-24T01:18:43.718Z,15.80
2017-08-24T01:21:11.147Z,15.70
2017-08-24T01:23:38.554Z,15.70
2017-08-24T01:26:05.970Z,15.60
2017-08-24T01:28:33.382Z,15.70
2017-08-24T01:31:00.799Z,15.80
2017-08-24T01:33:28.206Z,15.70
2017-08-24T01:35:55.617Z,15.70
2017-08-24T01:38:23.029Z,15.70
2017-08-24T01:40:50.450Z,15.80
2017-08-24T01:43:17.862Z,15.90
2017-08-24T01:45:45.276Z,15.90
2017-08-24T01:48:12.683Z,15.80
2017-08-24T01:50:40.093Z,15.70
2017-08-24T01:53:07.502Z,15.70
2017-08-24T01:55:34.921Z,15.70
2017-08-24T01:58:02.334Z,15.80
2017-08-24T02:00:29.745Z,15.80
2017-08-24T02:02:57.149Z,15.80
2017-08-24T02:05:24.557Z,15.80
2017-08-24T02:07:51.965Z,15.70
2017-08-24T02:10:19.390Z,15.70
2017-08-24T02:12:46.785Z,15.70
2017-08-24T02:15:14.199Z,15.50
2017-08-24T02:17:41.605Z,15.50
2017-08-24T02:20:09.029Z,15.60
2017-08-24T02:22:36.446Z,15.70
2017-08-24T02:25:03.873Z,15.70
2017-08-24T02:27:31.286Z,15.70
2017-08-24T02:29:58.697Z,15.80
2017-08-24T02:32:26.116Z,15.90
2017-08-24T02:34:53.539Z,16.10
2017-08-24T02:37:20.964Z,16.30
2017-08-24T02:39:48.366Z,16.30
2017-08-24T02:42:15.783Z,16.50
2017-08-24T02:44:43.190Z,16.60
2017-08-24T02:47:10.606Z,16.70
2017-08-24T02:49:38.017Z,16.80
2017-08-24T02:52:05.444Z,17.00
2017-08-24T02:54:32.856Z,17.10
2017-08-24T02:57:00.271Z,17.10
2017-08-24T02:59:27.688Z,17.00
2017-08-24T03:01:55.090Z,17.00
2017-08-24T03:04:22.502Z,16.90
2017-08-24T03:06:49.917Z,16.90
2017-08-24T03:09:17.338Z,16.90
2017-08-24T03:11:44.756Z,17.00
2017-08-24T03:14:12.171Z,17.10
2017-08-24T03:16:39.588Z,17.30
2017-08-24T03:19:06.990Z,17.40
2017-08-24T03:21:34.412Z,17.40
2017-08-24T03:24:01.826Z,17.40
2017-08-24T03:26:29.245Z,17.30
2017-08-24T03:28:56.653Z,17.40
2017-08-24T03:31:24.073Z,17.60
2017-08-24T03:33:51.495Z,17.70
2017-08-24T03:36:18.897Z,17.80
2017-08-24T03:38:46.314Z,17.90
2017-08-24T03:41:13.730Z,18.10
2017-08-24T03:43:41.146Z,18.20
2017-08-24T03:46:08.550Z,18.30
2017-08-24T03:48:35.971Z,18.20
2017-08-24T03:51:03.390Z,18.20
2017-08-24T03:53:30.819Z,18.30
2017-08-24T03:55:58.231Z,18.30
2017-08-24T03:58:25.642Z,18.30
2017-08-24T04:00:53.064Z,18.20
2017-08-24T04:03:20.480Z,18.20
2017-08-24T04:05:47.890Z,18.20
2017-08-24T04:08:15.301Z,18.20
2017-08-24T04:10:42.713Z,18.10
2017-08-24T04:13:10.126Z,18.10
2017-08-24T04:15:37.536Z,18.00
2017-08-24T04:18:04.963Z,18.00
2017-08-24T04:20:32.373Z,18.00
2017-08-24T04:22:59.799Z,18.10
2017-08-24T04:25:27.214Z,18.30
2017-08-24T04:27:54.637Z,18.50
2017-08-24T04:30:22.037Z,18.70
2017-08-24T04:32:49.457Z,18.80
2017-08-24T04:35:16.866Z,18.90
2017-08-24T04:37:44.291Z,18.90
2017-08-24T04:40:11.706Z,18.90
2017-08-24T04:42:39.135Z,18.90
2017-08-24T04:45:06.546Z,19.00
2017-08-24T04:47:33.970Z,19.10
2017-08-24T04:50:01.385Z,19.20
2017-08-24T04:52:28.805Z,19.20
2017-08-24T04:54:56.221Z,19.20
2017-08-24T04:57:23.645Z,19.10
2017-08-24T04:59:51.059Z,19.10
2017-08-24T05:02:18.491Z,19.10
2017-08-24T05:04:45.902Z,19.20
2017-08-24T05:07:13.331Z,19.10
2017-08-24T05:09:40.751Z,19.10
2017-08-24T05:12:08.166Z,19.10
2017-08-24T05:14:35.591Z,19.20
2017-08-24T05:17:03.011Z,19.20
2017-08-24T05:19:30.433Z,19.20
2017-08-24T05:21:57.845Z,19.20
2017-08-24T05:24:25.268Z,19.30
2017-08-24T05:26:52.673Z,19.40
2017-08-24T05:29:20.105Z,19.50
2017-08-24T05:31:47.514Z,19.60
2017-08-24T05:34:14.951Z,19.60
2017-08-24T05:36:42.365Z,19.50
2017-08-24T05:39:09.798Z,19.50
2017-08-24T05:41:37.194Z,19.50
2017-08-24T05:44:04.614Z,19.50
2017-08-24T05:46:32.026Z,19.60
2017-08-24T05:48:59.446Z,19.60
2017-08-24T05:51:26.858Z,19.60
2017-08-24T05:53:54.278Z,19.70
2017-08-24T05:56:21.688Z,19.80
2017-08-24T05:58:49.117Z,19.90
2017-08-24T06:01:16.530Z,20.10
2017-08-24T06:03:43.945Z,20.30
2017-08-24T06:06:11.370Z,20.50
2017-08-24T06:08:38.786Z,20.50
2017-08-24T06:11:06.208Z,20.60
2017-08-24T06:13:33.626Z,20.60
2017-08-24T06:16:01.045Z,20.60
2017-08-24T06:18:28.458Z,20.70
2017-08-24T06:20:55.882Z,20.50
2017-08-24T06:23:23.319Z,20.50
2017-08-24T06:25:50.718Z,20.30
2017-08-24T06:28:18.135Z,20.20
2017-08-24T06:30:45.552Z,20.10
2017-08-24T06:33:12.962Z,20.00
2017-08-24T06:35:40.382Z,20.00
2017-08-24T06:38:07.797Z,20.00
2017-08-24T06:40:35.219Z,20.10
2017-08-24T06:43:02.634Z,20.20
2017-08-24T06:45:30.066Z,20.50
2017-08-24T06:47:57.487Z,20.70
2017-08-24T06:50:24.901Z,20.90
2017-08-24T06:52:52.328Z,21.00
2017-08-24T06:55:19.760Z,21.10
2017-08-24T06:57:47.170Z,21.10
2017-08-24T07:00:14.593Z,21.10
2017-08-24T07:02:42.011Z,21.20
2017-08-24T07:05:09.429Z,21.20
2017-08-24T07:07:36.850Z,21.30
2017-08-24T07:10:04.270Z,21.30
2017-08-24T07:12:31.682Z,21.20
2017-08-24T07:14:59.097Z,21.00
2017-08-24T07:17:26.518Z,21.10
2017-08-24T07:19:53.939Z,21.30
2017-08-24T07:22:21.362Z,21.40
2017-08-24T07:24:48.777Z,21.70
2017-08-24T07:27:16.194Z,21.90
2017-08-24T07:29:43.606Z,22.20
2017-08-24T07:32:11.022Z,22.50
2017-08-24T07:34:39.382Z,22.70
2017-08-24T07:37:06.794Z,22.70
2017-08-24T07:39:34.222Z,22.60
2017-08-24T07:42:01.664Z,22.50
2017-08-24T07:44:29.046Z,22.30
2017-08-24T07:46:56.485Z,22.20
2017-08-24T07:49:23.898Z,22.30
2017-08-24T07:51:51.321Z,22.40
2017-08-24T07:54:18.734Z,22.30
2017-08-24T07:56:46.153Z,22.30
2017-08-24T07:59:13.574Z,22.20
2017-08-24T08:01:40.994Z,22.20
2017-08-24T08:04:08.405Z,22.40
2017-08-24T08:06:35.829Z,22.40
2017-08-24T08:09:03.240Z,22.60
2017-08-24T08:11:30.658Z,22.50
2017-08-24T08:13:58.065Z,22.60
2017-08-24T08:16:25.480Z,22.60
2017-08-24T08:18:52.891Z,22.60
2017-08-24T08:21:20.312Z,22.50
2017-08-24T08:23:47.724Z,22.40
2017-08-24T08:26:15.134Z,22.60
2017-08-24T08:28:42.541Z,22.70
2017-08-24T08:31:09.967Z,22.60
2017-08-24T08:33:37.378Z,22.70
2017-08-24T08:36:04.823Z,23.00
2017-08-24T08:38:32.221Z,23.10
2017-08-24T08:40:59.625Z,23.30
2017-08-24T08:43:27.042Z,23.50
2017-08-24T08:45:54.475Z,23.60
2017-08-24T08:48:21.884Z,23.90
2017-08-24T08:50:49.298Z,24.20
2017-08-24T08:53:16.725Z,24.70
2017-08-24T08:55:44.130Z,25.00
2017-08-24T08:58:11.554Z,25.50
2017-08-24T09:00:38.964Z,25.80
2017-08-24T09:03:06.387Z,25.90
2017-08-24T09:05:33.794Z,26.10
2017-08-24T09:08:01.211Z,26.20
2017-08-24T09:10:28.621Z,26.50
2017-08-24T09:12:56.043Z,26.70
2017-08-24T09:15:23.452Z,27.20
2017-08-24T09:17:50.859Z,27.40
2017-08-24T09:20:18.277Z,28.00
2017-08-24T09:22:45.686Z,28.40
2017-08-24T09:25:13.097Z,28.10
2017-08-24T09:27:40.506Z,27.90
2017-08-24T09:30:07.934Z,27.90
2017-08-24T09:32:35.342Z,27.50
2017-08-24T09:35:02.821Z,27.60
2017-08-24T09:37:30.221Z,27.40
2017-08-24T09:39:57.645Z,27.50
2017-08-24T09:42:25.055Z,27.90
2017-08-24T09:44:52.480Z,27.90
2017-08-24T09:47:19.882Z,27.60
2017-08-24T09:49:47.301Z,26.80
2017-08-24T09:52:14.722Z,26.10
2017-08-24T09:54:42.154Z,26.00
2017-08-24T09:57:09.568Z,26.30
2017-08-24T09:59:36.975Z,25.90
2017-08-24T10:02:04.392Z,25.70
2017-08-24T10:04:31.794Z,25.70
2017-08-24T10:06:59.211Z,25.90
2017-08-24T10:09:26.626Z,26.30
2017-08-24T10:11:54.050Z,26.40
2017-08-24T10:14:21.462Z,26.80
2017-08-24T10:16:48.878Z,27.10
2017-08-24T10:19:16.294Z,26.80
2017-08-24T10:21:43.718Z,26.20
2017-08-24T10:24:11.118Z,25.80
2017-08-24T10:26:38.530Z,25.60
2017-08-24T10:29:05.974Z,26.00
2017-08-24T10:31:33.383Z,26.10
2017-08-24T10:34:00.778Z,26.70
2017-08-24T10:36:28.194Z,27.20
2017-08-24T10:38:55.607Z,27.80
2017-08-24T10:41:23.021Z,27.70
2017-08-24T10:43:50.438Z,27.70
2017-08-24T10:46:17.846Z,27.60
2017-08-24T10:48:45.261Z,27.60
2017-08-24T10:51:12.674Z,27.50
2017-08-24T10:53:40.085Z,27.50
2017-08-24T10:56:07.494Z,27.40
2017-08-24T10:58:34.904Z,27.30
2017-08-24T11:01:02.310Z,27.20
2017-08-24T11:03:29.730Z,27.50
2017-08-24T11:05:57.146Z,27.70
2017-08-24T11:08:24.558Z,27.90
2017-08-24T11:10:51.967Z,28.00
2017-08-24T11:13:19.375Z,27.40
2017-08-24T11:15:46.786Z,26.90
2017-08-24T11:18:14.201Z,26.60
2017-08-24T11:20:41.603Z,26.70
2017-08-24T11:23:09.020Z,26.30
2017-08-24T11:25:36.426Z,26.20
2017-08-24T11:28:03.832Z,26.70
2017-08-24T11:30:31.255Z,26.70
2017-08-24T11:32:58.667Z,26.50
2017-08-24T11:35:26.088Z,26.60
2017-08-24T11:37:53.499Z,27.10
2017-08-24T11:40:20.922Z,27.80
2017-08-24T11:42:48.330Z,28.30
2017-08-24T11:45:15.781Z,28.80
2017-08-24T11:47:43.156Z,28.80
2017-08-24T11:50:10.566Z,28.70
2017-08-24T11:52:37.973Z,28.60
2017-08-24T11:55:05.392Z,28.90
2017-08-24T11:57:32.812Z,29.30
2017-08-24T12:00:00.226Z,29.00
2017-08-24T12:02:27.631Z,28.50
2017-08-24T12:04:55.042Z,28.40
2017-08-24T12:07:22.454Z,28.30
2017-08-24T12:09:49.872Z,28.10
2017-08-24T12:12:17.278Z,28.20
2017-08-24T12:14:44.715Z,28.30
2017-08-24T12:17:12.117Z,28.40
2017-08-24T12:19:39.543Z,28.60
2017-08-24T12:22:06.961Z,28.60
2017-08-24T12:24:34.385Z,28.80
2017-08-24T12:27:02.611Z,29.00
2017-08-24T12:29:30.017Z,29.20
2017-08-24T12:31:57.440Z,29.20
2017-08-24T12:34:24.854Z,29.20
2017-08-24T12:36:52.269Z,29.10
2017-08-24T12:39:19.674Z,28.80
2017-08-24T12:41:47.125Z,28.40
2017-08-24T12:44:14.531Z,28.30
2017-08-24T12:46:41.953Z,28.80
2017-08-24T12:49:09.370Z,29.00
2017-08-24T12:51:36.801Z,29.60
2017-08-24T12:54:04.213Z,30.00
2017-08-24T12:56:31.626Z,29.90
2017-08-24T12:58:59.038Z,29.70
2017-08-24T13:01:26.465Z,30.00
2017-08-24T13:03:53.862Z,30.30
2017-08-24T13:06:21.279Z,30.40
2017-08-24T13:08:48.710Z,30.40
2017-08-24T13:11:16.124Z,30.30
2017-08-24T13:13:43.536Z,30.40
2017-08-24T13:16:10.938Z,31.20
2017-08-24T13:18:38.363Z,31.90
2017-08-24T13:21:05.778Z,32.30
2017-08-24T13:23:33.206Z,32.50
2017-08-24T13:26:00.614Z,32.90
2017-08-24T13:28:28.822Z,32.80
2017-08-24T13:30:56.262Z,32.70
2017-08-24T13:33:23.674Z,32.40
2017-08-24T13:35:51.097Z,32.30
2017-08-24T13:38:18.506Z,32.60
2017-08-24T13:40:45.917Z,33.30
2017-08-24T13:43:13.334Z,33.80
2017-08-24T13:45:40.765Z,33.50
2017-08-24T13:48:08.173Z,32.80
2017-08-24T13:50:35.606Z,32.40
2017-08-24T13:53:03.014Z,32.30
2017-08-24T13:55:30.437Z,32.80
2017-08-24T13:57:57.850Z,33.30
2017-08-24T14:00:25.265Z,33.50
2017-08-24T14:02:52.682Z,32.70
2017-08-24T14:05:20.117Z,31.90
2017-08-24T14:07:47.531Z,31.70
2017-08-24T14:10:14.941Z,32.00
2017-08-24T14:12:42.364Z,32.40
2017-08-24T14:15:09.761Z,33.10
2017-08-24T14:17:37.191Z,33.60
2017-08-24T14:20:04.615Z,33.60
2017-08-24T14:22:32.046Z,33.00
2017-08-24T14:24:59.474Z,32.70
2017-08-24T14:27:26.898Z,32.40
2017-08-24T14:29:54.322Z,31.90
2017-08-24T14:32:21.738Z,31.20
2017-08-24T14:34:49.149Z,30.80
2017-08-24T14:37:16.576Z,30.60
2017-08-24T14:39:43.990Z,30.50
2017-08-24T14:42:11.408Z,30.30
2017-08-24T14:44:38.814Z,30.00
2017-08-24T14:47:06.225Z,29.80
2017-08-24T14:49:33.633Z,29.30
2017-08-24T14:52:01.054Z,28.90
2017-08-24T14:54:29.117Z,28.30
2017-08-24T14:56:56.557Z,27.90
2017-08-24T14:59:23.961Z,28.20
2017-08-24T15:01:51.406Z,28.50
2017-08-24T15:04:18.802Z,29.00
2017-08-24T15:06:46.219Z,30.10
2017-08-24T15:09:13.626Z,31.10
2017-08-24T15:11:41.041Z,31.70
2017-08-24T15:14:08.467Z,31.80
2017-08-24T15:16:35.889Z,32.20
2017-08-24T15:19:03.301Z,32.50
2017-08-24T15:21:30.699Z,32.20
2017-08-24T15:23:58.126Z,32.10
2017-08-24T15:26:25.539Z,31.40
2017-08-24T15:28:52.957Z,30.80
2017-08-24T15:31:20.382Z,30.80
2017-08-24T15:33:47.793Z,31.00
2017-08-24T15:36:15.201Z,31.40
2017-08-24T15:38:42.633Z,31.80
2017-08-24T15:41:10.046Z,32.20
2017-08-24T15:43:37.465Z,32.00
2017-08-24T15:46:04.878Z,31.70
2017-08-24T15:48:32.306Z,31.60
2017-08-24T15:50:59.717Z,31.00
2017-08-24T15:53:27.906Z,29.80
2017-08-24T15:55:55.314Z,29.30
2017-08-24T15:58:22.729Z,28.40
2017-08-24T16:00:50.142Z,27.70
2017-08-24T16:03:17.564Z,27.50
2017-08-24T16:05:44.978Z,27.90
2017-08-24T16:08:12.394Z,28.40
2017-08-24T16:10:39.814Z,28.80
2017-08-24T16:13:07.225Z,29.00
2017-08-24T16:15:34.648Z,29.00
2017-08-24T16:18:02.061Z,29.20
2017-08-24T16:20:29.482Z,29.30
2017-08-24T16:22:56.891Z,29.50
2017-08-24T16:25:24.314Z,29.70
2017-08-24T16:27:51.724Z,29.30
2017-08-24T16:30:19.133Z,28.80
2017-08-24T16:32:46.547Z,27.90
2017-08-24T16:35:13.966Z,27.10
2017-08-24T16:37:41.377Z,26.80
2017-08-24T16:40:08.796Z,26.50
2017-08-24T16:42:36.233Z,26.40
2017-08-24T16:45:03.658Z,26.10
2017-08-24T16:47:31.090Z,25.80
2017-08-24T16:49:58.497Z,25.70
2017-08-24T16:52:25.929Z,25.70
2017-08-24T16:54:53.341Z,25.50
2017-08-24T16:57:20.757Z,25.30
2017-08-24T16:59:48.169Z,25.20
2017-08-24T17:02:15.593Z,25.00
2017-08-24T17:04:42.996Z,24.80
2017-08-24T17:07:10.425Z,24.70
2017-08-24T17:09:37.837Z,24.70
2017-08-24T17:12:05.256Z,24.60
2017-08-24T17:14:32.666Z,24.70
2017-08-24T17:17:00.079Z,24.50
2017-08-24T17:19:27.508Z,24.40
2017-08-24T17:21:54.919Z,24.40
2017-08-24T17:24:22.353Z,24.30
2017-08-24T17:26:49.764Z,24.30
2017-08-24T17:29:17.185Z,24.40
2017-08-24T17:31:44.599Z,24.40
2017-08-24T17:34:12.012Z,24.40
2017-08-24T17:36:39.424Z,24.40
2017-08-24T17:39:06.833Z,24.40
2017-08-24T17:41:34.243Z,24.30
2017-08-24T17:44:01.664Z,24.20
2017-08-24T17:46:41.735Z,24.10
2017-08-24T17:49:09.134Z,24.00
2017-08-24T17:51:36.550Z,23.80
2017-08-24T17:54:03.970Z,23.70
2017-08-24T17:56:31.386Z,23.50
2017-08-24T17:58:58.805Z,23.20
2017-08-24T18:01:26.221Z,23.10
2017-08-24T18:03:53.630Z,22.60
2017-08-24T18:06:21.034Z,22.50
2017-08-24T18:08:48.459Z,22.40
2017-08-24T18:11:15.877Z,22.20
2017-08-24T18:13:43.301Z,22.00
2017-08-24T18:16:10.709Z,21.70
2017-08-24T18:18:38.141Z,21.50
2017-08-24T18:21:05.549Z,21.20
2017-08-24T18:23:32.966Z,21.00
2017-08-24T18:26:00.419Z,20.70
2017-08-24T18:28:27.837Z,20.40
2017-08-24T18:30:55.242Z,20.30
2017-08-24T18:33:22.671Z,20.20
2017-08-24T18:35:50.078Z,20.20
2017-08-24T18:38:17.497Z,20.20
2017-08-24T18:40:44.911Z,20.10
2017-08-24T18:43:12.318Z,19.90
2017-08-24T18:45:39.730Z,19.60
2017-08-24T18:48:07.145Z,19.40
2017-08-24T18:50:34.595Z,19.30
2017-08-24T18:53:02.002Z,19.10
2017-08-24T18:55:29.414Z,19.00
2017-08-24T18:57:56.826Z,18.70
2017-08-24T19:00:24.252Z,18.40
2017-08-24T19:02:51.654Z,18.10
2017-08-24T19:05:19.074Z,17.90
2017-08-24T19:07:46.488Z,17.80
2017-08-24T19:10:13.909Z,17.70
2017-08-24T19:12:41.310Z,17.60
2017-08-24T19:15:08.725Z,17.50
2017-08-24T19:17:36.134Z,17.40
2017-08-24T19:20:03.549Z,17.30
2017-08-24T19:22:30.966Z,17.20
2017-08-24T19:24:58.383Z,17.20
2017-08-24T19:27:25.792Z,17.20
2017-08-24T19:29:53.213Z,17.10
2017-08-24T19:32:20.624Z,17.10
2017-08-24T19:34:48.058Z,17.10
2017-08-24T19:37:15.468Z,17.20
2017-08-24T19:39:42.892Z,17.30
2017-08-24T19:42:14.711Z,17.40
2017-08-24T19:44:42.349Z,17.50
2017-08-24T19:47:09.746Z,17.70
2017-08-24T19:49:37.149Z,17.70
2017-08-24T19:52:04.569Z,17.70
2017-08-24T19:54:31.982Z,17.60
2017-08-24T19:56:59.404Z,17.40
2017-08-24T19:59:26.802Z,17.40
2017-08-24T20:01:54.222Z,17.30
2017-08-24T20:04:21.625Z,17.20
2017-08-24T20:06:49.048Z,17.10
2017-08-24T20:09:16.453Z,17.00
2017-08-24T20:11:43.889Z,16.90
2017-08-24T20:14:11.311Z,16.90
2017-08-24T20:16:38.741Z,16.90
2017-08-24T20:19:06.155Z,16.80
2017-08-24T20:21:33.610Z,16.70
2017-08-24T20:24:01.013Z,16.60
2017-08-24T20:26:28.471Z,16.60
2017-08-24T20:28:55.872Z,16.60
2017-08-24T20:31:23.293Z,16.60
2017-08-24T20:33:50.713Z,16.70
2017-08-24T20:36:18.118Z,16.80
2017-08-24T20:38:45.522Z,16.70
2017-08-24T20:41:12.958Z,16.60
2017-08-24T20:43:40.367Z,16.60
2017-08-24T20:46:07.790Z,16.50
2017-08-24T20:48:35.201Z,16.40
2017-08-24T20:51:02.617Z,16.20
2017-08-24T20:53:30.035Z,16.00
2017-08-24T20:55:57.465Z,15.90
2017-08-24T20:58:24.877Z,15.90
2017-08-24T21:00:52.286Z,16.00
2017-08-24T21:03:19.711Z,16.00
2017-08-24T21:05:47.130Z,16.00
2017-08-24T21:08:14.540Z,16.00
2017-08-24T21:10:41.949Z,16.00
2017-08-24T21:13:09.387Z,16.00
2017-08-24T21:15:36.798Z,16.10
2017-08-24T21:18:04.219Z,16.10
2017-08-24T21:20:31.638Z,16.10
2017-08-24T21:22:59.050Z,16.10
2017-08-24T21:25:26.463Z,16.00
2017-08-24T21:27:53.873Z,15.80
2017-08-24T21:30:21.298Z,15.70
2017-08-24T21:32:48.711Z,15.60
2017-08-24T21:35:16.136Z,15.60
2017-08-24T21:37:43.533Z,15.70
2017-08-24T21:40:10.961Z,15.80
2017-08-24T21:42:38.370Z,15.70
2017-08-24T21:45:05.785Z,15.70
2017-08-24T21:47:33.206Z,15.70
2017-08-24T21:50:00.625Z,15.60
2017-08-24T21:52:28.046Z,15.70
2017-08-24T21:54:55.457Z,15.60
2017-08-24T21:57:22.881Z,15.50
2017-08-24T21:59:50.294Z,15.40
2017-08-24T22:02:17.726Z,15.40
2017-08-24T22:04:45.140Z,15.40
2017-08-24T22:07:12.570Z,15.30
2017-08-24T22:09:39.990Z,15.30
2017-08-24T22:12:07.407Z,15.30
2017-08-24T22:14:34.836Z,15.40
2017-08-24T22:17:02.251Z,15.40
2017-08-24T22:19:29.674Z,15.50
2017-08-24T22:21:57.090Z,15.50
2017-08-24T22:24:24.507Z,15.40
2017-08-24T22:26:51.922Z,15.50
2017-08-24T22:29:19.345Z,15.50
2017-08-24T22:31:46.764Z,15.50
2017-08-24T22:34:14.175Z,15.60
2017-08-24T22:36:41.590Z,15.40
2017-08-24T22:39:09.005Z,15.00
2017-08-24T22:41:36.437Z,15.00
2017-08-24T22:44:03.838Z,15.00
2017-08-24T22:46:31.282Z,15.00
2017-08-24T22:48:58.669Z,15.00
2017-08-24T22:51:26.090Z,14.80
2017-08-24T22:53:59.233Z,14.80
2017-08-24T22:56:32.294Z,14.90
2017-08-24T22:59:05.446Z,14.80
2017-08-24T23:01:38.655Z,14.70
2017-08-24T23:04:06.064Z,14.70
2017-08-24T23:06:33.473Z,14.60
2017-08-24T23:09:00.881Z,14.60
2017-08-24T23:11:28.320Z,14.70
2017-08-24T23:13:55.740Z,14.70
2017-08-24T23:16:23.141Z,14.70
2017-08-24T23:18:50.562Z,14.70
2017-08-24T23:21:17.979Z,14.70
2017-08-24T23:23:46.330Z,14.70
2017-08-24T23:26:13.745Z,14.70
2017-08-24T23:28:41.170Z,14.70
2017-08-24T23:31:08.581Z,14.60
2017-08-24T23:33:36.010Z,14.70
2017-08-24T23:36:03.425Z,14.70
2017-08-24T23:38:30.830Z,14.70
2017-08-24T23:40:58.255Z,14.60
2017-08-24T23:43:25.657Z,14.60
2017-08-24T23:45:53.077Z,14.60
2017-08-24T23:48:20.486Z,14.60
2017-08-24T23:50:47.898Z,14.50
2017-08-24T23:53:23.202Z,14.40
2017-08-24T23:55:50.606Z,14.50
2017-08-24T23:58:18.030Z,14.50
